sensor_id;sensor_type;location;lat;lon;timestamp;P1;durP1;ratioP1;P2;durP2;ratioP2
5303;SDS011;2674;49.722;10.892;2022-09-14T00:01:08;6.43;;;5.40;;
5303;SDS011;2674;49.722;10.892;2022-09-14T00:03:35;6.87;;;6.27;;
5303;SDS011;2674;49.722;10.892;2022-09-14T00:06:05;7.60;;;6.10;;
5303;SDS011;2674;49.722;10.892;2022-09-14T00:08:33;8.83;;;6.00;;
5303;SDS011;2674;49.722;10.892;2022-09-14T00:11:04;9.07;;;6.60;;
5303;SDS011;2674;49.722;10.892;2022-09-14T00:13:32;7.40;;;6.07;;
5303;SDS011;2674;49.722;10.892;2022-09-14T00:16:03;7.63;;;6.03;;
5303;SDS011;2674;49.722;10.892;2022-09-14T00:18:33;7.10;;;6.00;;
5303;SDS011;2674;49.722;10.892;2022-09-14T00:21:00;8.80;;;6.20;;
5303;SDS011;2674;49.722;10.892;2022-09-14T00:23:27;9.97;;;6.17;;
5303;SDS011;2674;49.722;10.892;2022-09-14T00:25:53;7.60;;;6.80;;
5303;SDS011;2674;49.722;10.892;2022-09-14T00:28:19;8.67;;;5.40;;
5303;SDS011;2674;49.722;10.892;2022-09-14T00:30:46;7.07;;;6.07;;
5303;SDS011;2674;49.722;10.892;2022-09-14T00:33:11;7.80;;;6.20;;
5303;SDS011;2674;49.722;10.892;2022-09-14T00:35:37;7.13;;;6.13;;
5303;SDS011;2674;49.722;10.892;2022-09-14T00:38:04;10.13;;;5.93;;
5303;SDS011;2674;49.722;10.892;2022-09-14T00:40:31;6.63;;;5.67;;
5303;SDS011;2674;49.722;10.892;2022-09-14T00:42:57;7.10;;;6.20;;
5303;SDS011;2674;49.722;10.892;2022-09-14T00:45:23;6.70;;;6.10;;
5303;SDS011;2674;49.722;10.892;2022-09-14T00:47:50;10.00;;;6.93;;
5303;SDS011;2674;49.722;10.892;2022-09-14T00:50:17;6.40;;;5.83;;
5303;SDS011;2674;49.722;10.892;2022-09-14T00:52:45;6.93;;;6.40;;
5303;SDS011;2674;49.722;10.892;2022-09-14T00:55:15;8.00;;;6.63;;
5303;SDS011;2674;49.722;10.892;2022-09-14T00:57:45;7.60;;;6.53;;
5303;SDS011;2674;49.722;10.892;2022-09-14T01:00:15;12.40;;;6.20;;
5303;SDS011;2674;49.722;10.892;2022-09-14T01:02:43;7.20;;;6.50;;
5303;SDS011;2674;49.722;10.892;2022-09-14T01:05:10;7.57;;;5.80;;
5303;SDS011;2674;49.722;10.892;2022-09-14T01:10:35;8.70;;;6.67;;
5303;SDS011;2674;49.722;10.892;2022-09-14T01:18:48;6.37;;;5.77;;
5303;SDS011;2674;49.722;10.892;2022-09-14T01:21:25;8.93;;;6.00;;
5303;SDS011;2674;49.722;10.892;2022-09-14T01:34:38;10.93;;;6.40;;
5303;SDS011;2674;49.722;10.892;2022-09-14T01:37:11;7.03;;;6.33;;
5303;SDS011;2674;49.722;10.892;2022-09-14T01:40:04;7.50;;;6.80;;
5303;SDS011;2674;49.722;10.892;2022-09-14T01:42:39;8.40;;;7.20;;
5303;SDS011;2674;49.722;10.892;2022-09-14T01:45:07;9.10;;;6.90;;
5303;SDS011;2674;49.722;10.892;2022-09-14T01:47:38;8.30;;;6.50;;
5303;SDS011;2674;49.722;10.892;2022-09-14T01:50:26;7.33;;;6.13;;
5303;SDS011;2674;49.722;10.892;2022-09-14T01:53:05;9.87;;;6.40;;
5303;SDS011;2674;49.722;10.892;2022-09-14T01:55:43;8.30;;;6.93;;
5303;SDS011;2674;49.722;10.892;2022-09-14T01:58:18;9.47;;;6.27;;
5303;SDS011;2674;49.722;10.892;2022-09-14T02:01:01;9.10;;;7.00;;
5303;SDS011;2674;49.722;10.892;2022-09-14T02:03:37;8.30;;;7.57;;
5303;SDS011;2674;49.722;10.892;2022-09-14T02:06:11;13.97;;;6.90;;
5303;SDS011;2674;49.722;10.892;2022-09-14T02:08:42;7.97;;;7.20;;
5303;SDS011;2674;49.722;10.892;2022-09-14T02:11:08;14.00;;;7.70;;
5303;SDS011;2674;49.722;10.892;2022-09-14T02:13:34;11.20;;;7.50;;
5303;SDS011;2674;49.722;10.892;2022-09-14T02:16:00;15.50;;;7.77;;
5303;SDS011;2674;49.722;10.892;2022-09-14T02:18:26;7.70;;;6.97;;
5303;SDS011;2674;49.722;10.892;2022-09-14T02:23:19;10.20;;;7.80;;
5303;SDS011;2674;49.722;10.892;2022-09-14T02:25:46;9.20;;;7.53;;
5303;SDS011;2674;49.722;10.892;2022-09-14T02:28:12;9.30;;;7.97;;
5303;SDS011;2674;49.722;10.892;2022-09-14T02:36:48;12.07;;;8.67;;
5303;SDS011;2674;49.722;10.892;2022-09-14T02:39:00;11.30;;;9.50;;
5303;SDS011;2674;49.722;10.892;2022-09-14T02:41:54;9.63;;;8.63;;
5303;SDS011;2674;49.722;10.892;2022-09-14T02:47:59;10.23;;;8.80;;
5303;SDS011;2674;49.722;10.892;2022-09-14T02:50:22;12.00;;;9.03;;
5303;SDS011;2674;49.722;10.892;2022-09-14T02:55:35;11.97;;;8.30;;
5303;SDS011;2674;49.722;10.892;2022-09-14T02:58:06;9.77;;;8.40;;
5303;SDS011;2674;49.722;10.892;2022-09-14T03:00:40;11.60;;;8.63;;
5303;SDS011;2674;49.722;10.892;2022-09-14T03:03:13;16.30;;;8.70;;
5303;SDS011;2674;49.722;10.892;2022-09-14T03:05:41;11.23;;;8.70;;
5303;SDS011;2674;49.722;10.892;2022-09-14T03:08:08;12.20;;;9.87;;
5303;SDS011;2674;49.722;10.892;2022-09-14T03:10:35;11.20;;;9.53;;
5303;SDS011;2674;49.722;10.892;2022-09-14T03:13:00;11.40;;;9.10;;
5303;SDS011;2674;49.722;10.892;2022-09-14T03:15:26;12.10;;;9.63;;
5303;SDS011;2674;49.722;10.892;2022-09-14T03:17:53;9.13;;;8.23;;
5303;SDS011;2674;49.722;10.892;2022-09-14T03:20:23;10.23;;;8.80;;
5303;SDS011;2674;49.722;10.892;2022-09-14T03:22:51;10.50;;;8.83;;
5303;SDS011;2674;49.722;10.892;2022-09-14T03:25:17;10.70;;;8.97;;
5303;SDS011;2674;49.722;10.892;2022-09-14T03:27:47;13.77;;;8.73;;
5303;SDS011;2674;49.722;10.892;2022-09-14T03:30:18;10.03;;;9.03;;
5303;SDS011;2674;49.722;10.892;2022-09-14T03:32:45;12.50;;;9.57;;
5303;SDS011;2674;49.722;10.892;2022-09-14T03:35:11;12.00;;;9.93;;
5303;SDS011;2674;49.722;10.892;2022-09-14T03:37:38;16.43;;;10.90;;
5303;SDS011;2674;49.722;10.892;2022-09-14T03:40:06;16.70;;;11.63;;
5303;SDS011;2674;49.722;10.892;2022-09-14T03:42:33;13.03;;;10.93;;
5303;SDS011;2674;49.722;10.892;2022-09-14T03:45:00;13.07;;;10.67;;
5303;SDS011;2674;49.722;10.892;2022-09-14T03:47:26;16.23;;;12.20;;
5303;SDS011;2674;49.722;10.892;2022-09-14T03:49:52;15.53;;;10.70;;
5303;SDS011;2674;49.722;10.892;2022-09-14T03:52:18;20.63;;;12.70;;
5303;SDS011;2674;49.722;10.892;2022-09-14T03:54:44;15.50;;;13.03;;
5303;SDS011;2674;49.722;10.892;2022-09-14T03:57:10;14.70;;;11.20;;
5303;SDS011;2674;49.722;10.892;2022-09-14T03:59:36;16.83;;;11.03;;
5303;SDS011;2674;49.722;10.892;2022-09-14T04:02:02;12.00;;;10.60;;
5303;SDS011;2674;49.722;10.892;2022-09-14T04:04:28;13.03;;;10.07;;
5303;SDS011;2674;49.722;10.892;2022-09-14T04:06:54;12.80;;;10.40;;
5303;SDS011;2674;49.722;10.892;2022-09-14T04:09:20;11.27;;;10.07;;
5303;SDS011;2674;49.722;10.892;2022-09-14T04:11:46;13.20;;;10.57;;
5303;SDS011;2674;49.722;10.892;2022-09-14T04:14:12;16.13;;;10.20;;
5303;SDS011;2674;49.722;10.892;2022-09-14T04:16:39;14.00;;;10.50;;
5303;SDS011;2674;49.722;10.892;2022-09-14T04:19:07;11.47;;;9.70;;
5303;SDS011;2674;49.722;10.892;2022-09-14T04:21:34;12.20;;;10.93;;
5303;SDS011;2674;49.722;10.892;2022-09-14T04:24:00;16.77;;;11.27;;
5303;SDS011;2674;49.722;10.892;2022-09-14T04:26:26;16.00;;;12.27;;
5303;SDS011;2674;49.722;10.892;2022-09-14T04:28:54;16.23;;;11.30;;
5303;SDS011;2674;49.722;10.892;2022-09-14T04:31:20;14.10;;;11.57;;
5303;SDS011;2674;49.722;10.892;2022-09-14T04:33:47;14.83;;;11.60;;
5303;SDS011;2674;49.722;10.892;2022-09-14T04:36:16;15.83;;;11.17;;
5303;SDS011;2674;49.722;10.892;2022-09-14T04:38:43;15.40;;;11.17;;
5303;SDS011;2674;49.722;10.892;2022-09-14T04:41:11;13.07;;;11.33;;
5303;SDS011;2674;49.722;10.892;2022-09-14T04:43:42;17.23;;;11.93;;
5303;SDS011;2674;49.722;10.892;2022-09-14T04:46:14;22.33;;;12.10;;
5303;SDS011;2674;49.722;10.892;2022-09-14T04:48:42;19.00;;;13.37;;
5303;SDS011;2674;49.722;10.892;2022-09-14T04:51:12;22.30;;;11.87;;
5303;SDS011;2674;49.722;10.892;2022-09-14T04:53:43;15.93;;;12.30;;
5303;SDS011;2674;49.722;10.892;2022-09-14T04:56:11;15.57;;;12.33;;
5303;SDS011;2674;49.722;10.892;2022-09-14T04:58:40;18.40;;;12.10;;
5303;SDS011;2674;49.722;10.892;2022-09-14T05:01:08;21.60;;;10.77;;
5303;SDS011;2674;49.722;10.892;2022-09-14T05:03:37;18.77;;;11.47;;
5303;SDS011;2674;49.722;10.892;2022-09-14T05:06:04;20.73;;;11.03;;
5303;SDS011;2674;49.722;10.892;2022-09-14T05:08:32;16.83;;;11.60;;
5303;SDS011;2674;49.722;10.892;2022-09-14T05:10:59;12.70;;;10.27;;
5303;SDS011;2674;49.722;10.892;2022-09-14T05:13:25;15.33;;;11.57;;
5303;SDS011;2674;49.722;10.892;2022-09-14T05:15:51;14.03;;;11.20;;
5303;SDS011;2674;49.722;10.892;2022-09-14T05:18:17;15.23;;;10.30;;
5303;SDS011;2674;49.722;10.892;2022-09-14T05:20:43;15.27;;;10.53;;
5303;SDS011;2674;49.722;10.892;2022-09-14T05:23:09;12.20;;;10.40;;
5303;SDS011;2674;49.722;10.892;2022-09-14T05:25:38;11.57;;;9.80;;
5303;SDS011;2674;49.722;10.892;2022-09-14T05:28:04;15.17;;;11.03;;
5303;SDS011;2674;49.722;10.892;2022-09-14T05:30:30;13.50;;;10.90;;
5303;SDS011;2674;49.722;10.892;2022-09-14T05:32:56;11.80;;;9.80;;
5303;SDS011;2674;49.722;10.892;2022-09-14T05:35:22;14.40;;;10.70;;
5303;SDS011;2674;49.722;10.892;2022-09-14T05:37:47;12.63;;;11.00;;
5303;SDS011;2674;49.722;10.892;2022-09-14T05:40:13;15.37;;;11.57;;
5303;SDS011;2674;49.722;10.892;2022-09-14T05:42:39;13.77;;;12.27;;
5303;SDS011;2674;49.722;10.892;2022-09-14T05:45:05;26.53;;;11.70;;
5303;SDS011;2674;49.722;10.892;2022-09-14T05:47:31;16.93;;;10.93;;
5303;SDS011;2674;49.722;10.892;2022-09-14T05:49:57;18.80;;;11.67;;
5303;SDS011;2674;49.722;10.892;2022-09-14T05:52:23;12.77;;;11.43;;
5303;SDS011;2674;49.722;10.892;2022-09-14T05:54:49;15.00;;;11.67;;
5303;SDS011;2674;49.722;10.892;2022-09-14T05:57:15;13.80;;;12.13;;
5303;SDS011;2674;49.722;10.892;2022-09-14T05:59:40;19.47;;;11.17;;
5303;SDS011;2674;49.722;10.892;2022-09-14T06:02:07;16.63;;;12.20;;
5303;SDS011;2674;49.722;10.892;2022-09-14T06:04:34;15.37;;;10.60;;
5303;SDS011;2674;49.722;10.892;2022-09-14T06:07:00;15.40;;;11.50;;
5303;SDS011;2674;49.722;10.892;2022-09-14T06:09:26;15.07;;;11.03;;
5303;SDS011;2674;49.722;10.892;2022-09-14T06:11:53;13.67;;;10.37;;
5303;SDS011;2674;49.722;10.892;2022-09-14T06:14:19;14.70;;;11.87;;
5303;SDS011;2674;49.722;10.892;2022-09-14T06:16:45;12.77;;;10.57;;
5303;SDS011;2674;49.722;10.892;2022-09-14T06:19:11;15.37;;;11.70;;
5303;SDS011;2674;49.722;10.892;2022-09-14T06:21:39;13.60;;;11.90;;
5303;SDS011;2674;49.722;10.892;2022-09-14T06:24:05;12.77;;;10.43;;
5303;SDS011;2674;49.722;10.892;2022-09-14T06:26:31;16.93;;;12.20;;
5303;SDS011;2674;49.722;10.892;2022-09-14T06:28:57;15.37;;;11.20;;
5303;SDS011;2674;49.722;10.892;2022-09-14T06:31:23;16.67;;;11.87;;
5303;SDS011;2674;49.722;10.892;2022-09-14T06:33:50;13.50;;;10.43;;
5303;SDS011;2674;49.722;10.892;2022-09-14T06:36:17;18.60;;;11.87;;
5303;SDS011;2674;49.722;10.892;2022-09-14T06:38:45;13.13;;;10.47;;
5303;SDS011;2674;49.722;10.892;2022-09-14T06:41:14;11.33;;;10.10;;
5303;SDS011;2674;49.722;10.892;2022-09-14T06:43:45;13.70;;;10.90;;
5303;SDS011;2674;49.722;10.892;2022-09-14T06:46:12;11.53;;;10.30;;
5303;SDS011;2674;49.722;10.892;2022-09-14T06:49:02;12.83;;;10.70;;
5303;SDS011;2674;49.722;10.892;2022-09-14T06:51:32;16.20;;;10.40;;
5303;SDS011;2674;49.722;10.892;2022-09-14T06:54:00;12.07;;;10.27;;
5303;SDS011;2674;49.722;10.892;2022-09-14T06:56:27;13.20;;;9.47;;
5303;SDS011;2674;49.722;10.892;2022-09-14T06:58:56;12.97;;;9.37;;
5303;SDS011;2674;49.722;10.892;2022-09-14T07:01:23;9.83;;;8.80;;
5303;SDS011;2674;49.722;10.892;2022-09-14T07:03:50;9.43;;;8.53;;
5303;SDS011;2674;49.722;10.892;2022-09-14T07:06:21;14.37;;;10.53;;
5303;SDS011;2674;49.722;10.892;2022-09-14T07:08:49;12.10;;;9.27;;
5303;SDS011;2674;49.722;10.892;2022-09-14T07:11:16;11.10;;;9.10;;
5303;SDS011;2674;49.722;10.892;2022-09-14T07:13:44;15.00;;;9.00;;
5303;SDS011;2674;49.722;10.892;2022-09-14T07:16:10;9.17;;;8.00;;
5303;SDS011;2674;49.722;10.892;2022-09-14T07:18:37;7.60;;;6.77;;
5303;SDS011;2674;49.722;10.892;2022-09-14T07:21:07;14.93;;;8.47;;
5303;SDS011;2674;49.722;10.892;2022-09-14T07:23:41;10.87;;;7.73;;
5303;SDS011;2674;49.722;10.892;2022-09-14T07:26:09;16.23;;;8.80;;
5303;SDS011;2674;49.722;10.892;2022-09-14T07:28:44;12.10;;;9.07;;
5303;SDS011;2674;49.722;10.892;2022-09-14T07:31:14;11.30;;;8.63;;
5303;SDS011;2674;49.722;10.892;2022-09-14T07:33:45;8.70;;;7.77;;
5303;SDS011;2674;49.722;10.892;2022-09-14T07:36:12;12.87;;;8.53;;
5303;SDS011;2674;49.722;10.892;2022-09-14T07:38:39;8.50;;;7.60;;
5303;SDS011;2674;49.722;10.892;2022-09-14T07:41:05;9.87;;;8.83;;
5303;SDS011;2674;49.722;10.892;2022-09-14T07:43:31;9.97;;;8.10;;
5303;SDS011;2674;49.722;10.892;2022-09-14T07:46:02;11.80;;;9.00;;
5303;SDS011;2674;49.722;10.892;2022-09-14T07:48:30;12.03;;;9.10;;
5303;SDS011;2674;49.722;10.892;2022-09-14T07:51:06;11.37;;;8.57;;
5303;SDS011;2674;49.722;10.892;2022-09-14T07:53:37;13.30;;;9.17;;
5303;SDS011;2674;49.722;10.892;2022-09-14T07:56:06;10.83;;;8.40;;
5303;SDS011;2674;49.722;10.892;2022-09-14T07:58:33;11.07;;;9.97;;
5303;SDS011;2674;49.722;10.892;2022-09-14T08:01:01;12.57;;;9.97;;
5303;SDS011;2674;49.722;10.892;2022-09-14T08:03:29;12.17;;;10.10;;
5303;SDS011;2674;49.722;10.892;2022-09-14T08:06:03;9.73;;;8.47;;
5303;SDS011;2674;49.722;10.892;2022-09-14T08:08:34;15.63;;;10.17;;
5303;SDS011;2674;49.722;10.892;2022-09-14T08:11:05;11.30;;;8.90;;
5303;SDS011;2674;49.722;10.892;2022-09-14T08:13:47;14.13;;;9.43;;
5303;SDS011;2674;49.722;10.892;2022-09-14T08:16:15;15.50;;;8.97;;
5303;SDS011;2674;49.722;10.892;2022-09-14T08:18:43;9.50;;;8.60;;
5303;SDS011;2674;49.722;10.892;2022-09-14T08:21:11;11.70;;;10.00;;
5303;SDS011;2674;49.722;10.892;2022-09-14T08:23:39;13.93;;;10.50;;
5303;SDS011;2674;49.722;10.892;2022-09-14T08:26:06;10.80;;;9.67;;
5303;SDS011;2674;49.722;10.892;2022-09-14T08:28:35;14.10;;;10.03;;
5303;SDS011;2674;49.722;10.892;2022-09-14T08:31:11;10.17;;;9.10;;
5303;SDS011;2674;49.722;10.892;2022-09-14T08:33:40;10.40;;;8.53;;
5303;SDS011;2674;49.722;10.892;2022-09-14T08:36:08;12.53;;;10.40;;
5303;SDS011;2674;49.722;10.892;2022-09-14T08:38:36;13.43;;;9.57;;
5303;SDS011;2674;49.722;10.892;2022-09-14T08:43:55;12.87;;;10.50;;
5303;SDS011;2674;49.722;10.892;2022-09-14T08:46:27;12.83;;;10.30;;
5303;SDS011;2674;49.722;10.892;2022-09-14T08:48:59;12.50;;;10.70;;
5303;SDS011;2674;49.722;10.892;2022-09-14T08:51:27;26.73;;;10.70;;
5303;SDS011;2674;49.722;10.892;2022-09-14T08:53:55;11.10;;;9.70;;
5303;SDS011;2674;49.722;10.892;2022-09-14T08:56:24;15.73;;;10.07;;
5303;SDS011;2674;49.722;10.892;2022-09-14T09:02:15;10.60;;;9.20;;
5303;SDS011;2674;49.722;10.892;2022-09-14T09:04:51;15.80;;;10.10;;
5303;SDS011;2674;49.722;10.892;2022-09-14T09:07:36;10.70;;;8.27;;
5303;SDS011;2674;49.722;10.892;2022-09-14T09:10:07;10.43;;;9.40;;
5303;SDS011;2674;49.722;10.892;2022-09-14T09:12:41;10.53;;;8.13;;
5303;SDS011;2674;49.722;10.892;2022-09-14T09:20:39;14.00;;;10.10;;
5303;SDS011;2674;49.722;10.892;2022-09-14T09:23:11;11.33;;;10.13;;
5303;SDS011;2674;49.722;10.892;2022-09-14T09:28:25;18.10;;;10.93;;
5303;SDS011;2674;49.722;10.892;2022-09-14T09:31:02;10.33;;;9.30;;
5303;SDS011;2674;49.722;10.892;2022-09-14T09:33:31;13.23;;;9.53;;
5303;SDS011;2674;49.722;10.892;2022-09-14T09:35:57;12.63;;;11.33;;
5303;SDS011;2674;49.722;10.892;2022-09-14T09:38:25;12.00;;;9.50;;
5303;SDS011;2674;49.722;10.892;2022-09-14T09:44:05;12.53;;;10.63;;
5303;SDS011;2674;49.722;10.892;2022-09-14T09:51:50;13.10;;;9.43;;
5303;SDS011;2674;49.722;10.892;2022-09-14T09:54:29;13.07;;;10.20;;
5303;SDS011;2674;49.722;10.892;2022-09-14T09:56:58;12.67;;;9.40;;
5303;SDS011;2674;49.722;10.892;2022-09-14T09:59:39;14.47;;;9.60;;
5303;SDS011;2674;49.722;10.892;2022-09-14T10:02:28;21.33;;;9.53;;
5303;SDS011;2674;49.722;10.892;2022-09-14T10:05:03;16.03;;;9.90;;
5303;SDS011;2674;49.722;10.892;2022-09-14T10:07:30;9.37;;;8.47;;
5303;SDS011;2674;49.722;10.892;2022-09-14T10:12:32;8.47;;;7.63;;
5303;SDS011;2674;49.722;10.892;2022-09-14T10:15:12;8.50;;;7.23;;
5303;SDS011;2674;49.722;10.892;2022-09-14T10:20:36;9.50;;;7.50;;
5303;SDS011;2674;49.722;10.892;2022-09-14T10:23:21;9.60;;;7.33;;
5303;SDS011;2674;49.722;10.892;2022-09-14T10:25:50;12.07;;;7.90;;
5303;SDS011;2674;49.722;10.892;2022-09-14T10:28:36;8.47;;;7.33;;
5303;SDS011;2674;49.722;10.892;2022-09-14T10:33:33;8.97;;;7.90;;
5303;SDS011;2674;49.722;10.892;2022-09-14T10:38:32;10.20;;;7.70;;
5303;SDS011;2674;49.722;10.892;2022-09-14T10:41:08;7.83;;;7.00;;
5303;SDS011;2674;49.722;10.892;2022-09-14T10:46:09;9.80;;;7.60;;
5303;SDS011;2674;49.722;10.892;2022-09-14T10:49:03;7.30;;;6.60;;
5303;SDS011;2674;49.722;10.892;2022-09-14T10:57:58;8.13;;;6.93;;
5303;SDS011;2674;49.722;10.892;2022-09-14T11:08:44;7.83;;;5.27;;
5303;SDS011;2674;49.722;10.892;2022-09-14T11:11:25;6.50;;;5.20;;
5303;SDS011;2674;49.722;10.892;2022-09-14T11:26:15;5.30;;;4.90;;
5303;SDS011;2674;49.722;10.892;2022-09-14T11:28:53;5.67;;;4.87;;
5303;SDS011;2674;49.722;10.892;2022-09-14T11:31:25;8.60;;;4.87;;
5303;SDS011;2674;49.722;10.892;2022-09-14T11:34:06;5.60;;;5.10;;
5303;SDS011;2674;49.722;10.892;2022-09-14T11:36:45;9.07;;;5.60;;
5303;SDS011;2674;49.722;10.892;2022-09-14T11:39:17;7.70;;;5.33;;
5303;SDS011;2674;49.722;10.892;2022-09-14T11:44:38;4.50;;;4.20;;
5303;SDS011;2674;49.722;10.892;2022-09-14T11:52:31;4.23;;;3.97;;
5303;SDS011;2674;49.722;10.892;2022-09-14T11:54:58;4.00;;;3.80;;
5303;SDS011;2674;49.722;10.892;2022-09-14T11:57:26;3.77;;;3.33;;
5303;SDS011;2674;49.722;10.892;2022-09-14T12:12:39;4.37;;;4.07;;
5303;SDS011;2674;49.722;10.892;2022-09-14T12:15:50;3.80;;;3.30;;
5303;SDS011;2674;49.722;10.892;2022-09-14T12:31:05;4.50;;;4.10;;
5303;SDS011;2674;49.722;10.892;2022-09-14T12:39:31;4.50;;;4.07;;
5303;SDS011;2674;49.722;10.892;2022-09-14T12:42:04;5.03;;;4.63;;
5303;SDS011;2674;49.722;10.892;2022-09-14T12:44:51;7.03;;;4.40;;
5303;SDS011;2674;49.722;10.892;2022-09-14T12:49:53;4.43;;;4.00;;
5303;SDS011;2674;49.722;10.892;2022-09-14T13:05:33;10.60;;;3.97;;
5303;SDS011;2674;49.722;10.892;2022-09-14T13:07:59;4.10;;;3.90;;
5303;SDS011;2674;49.722;10.892;2022-09-14T13:10:33;4.07;;;3.70;;
5303;SDS011;2674;49.722;10.892;2022-09-14T13:13:04;5.30;;;4.53;;
5303;SDS011;2674;49.722;10.892;2022-09-14T13:15:44;5.63;;;4.13;;
5303;SDS011;2674;49.722;10.892;2022-09-14T13:18:34;4.50;;;4.20;;
5303;SDS011;2674;49.722;10.892;2022-09-14T13:21:11;5.90;;;5.43;;
5303;SDS011;2674;49.722;10.892;2022-09-14T13:23:46;4.60;;;4.20;;
5303;SDS011;2674;49.722;10.892;2022-09-14T13:26:19;5.63;;;4.17;;
5303;SDS011;2674;49.722;10.892;2022-09-14T13:28:51;7.10;;;5.53;;
5303;SDS011;2674;49.722;10.892;2022-09-14T13:31:37;5.63;;;5.23;;
5303;SDS011;2674;49.722;10.892;2022-09-14T13:34:04;5.90;;;5.37;;
5303;SDS011;2674;49.722;10.892;2022-09-14T13:36:32;8.00;;;4.07;;
5303;SDS011;2674;49.722;10.892;2022-09-14T13:39:00;4.30;;;4.00;;
5303;SDS011;2674;49.722;10.892;2022-09-14T13:41:28;5.20;;;4.80;;
5303;SDS011;2674;49.722;10.892;2022-09-14T13:43:55;5.43;;;5.03;;
5303;SDS011;2674;49.722;10.892;2022-09-14T13:46:23;5.30;;;4.90;;
5303;SDS011;2674;49.722;10.892;2022-09-14T13:48:50;5.17;;;4.73;;
5303;SDS011;2674;49.722;10.892;2022-09-14T13:51:21;10.80;;;5.30;;
5303;SDS011;2674;49.722;10.892;2022-09-14T13:53:52;6.63;;;5.40;;
5303;SDS011;2674;49.722;10.892;2022-09-14T13:56:28;5.47;;;4.97;;
5303;SDS011;2674;49.722;10.892;2022-09-14T14:01:32;4.10;;;3.80;;
5303;SDS011;2674;49.722;10.892;2022-09-14T14:04:01;5.90;;;5.30;;
5303;SDS011;2674;49.722;10.892;2022-09-14T14:06:28;5.00;;;4.60;;
5303;SDS011;2674;49.722;10.892;2022-09-14T14:11:31;4.83;;;4.40;;
5303;SDS011;2674;49.722;10.892;2022-09-14T14:16:36;7.10;;;4.83;;
5303;SDS011;2674;49.722;10.892;2022-09-14T14:19:02;6.07;;;5.50;;
5303;SDS011;2674;49.722;10.892;2022-09-14T14:21:29;6.50;;;6.00;;
5303;SDS011;2674;49.722;10.892;2022-09-14T14:26:54;5.50;;;4.90;;
5303;SDS011;2674;49.722;10.892;2022-09-14T14:29:21;6.13;;;4.83;;
5303;SDS011;2674;49.722;10.892;2022-09-14T14:31:48;5.60;;;5.20;;
5303;SDS011;2674;49.722;10.892;2022-09-14T14:36:45;6.30;;;5.50;;
5303;SDS011;2674;49.722;10.892;2022-09-14T14:39:14;5.40;;;4.90;;
5303;SDS011;2674;49.722;10.892;2022-09-14T14:41:41;6.17;;;5.67;;
5303;SDS011;2674;49.722;10.892;2022-09-14T14:44:09;6.50;;;5.47;;
5303;SDS011;2674;49.722;10.892;2022-09-14T14:46:41;6.13;;;5.63;;
5303;SDS011;2674;49.722;10.892;2022-09-14T14:49:12;5.80;;;5.03;;
5303;SDS011;2674;49.722;10.892;2022-09-14T14:51:39;6.13;;;5.53;;
5303;SDS011;2674;49.722;10.892;2022-09-14T14:54:07;7.90;;;7.20;;
5303;SDS011;2674;49.722;10.892;2022-09-14T14:56:35;10.00;;;6.43;;
5303;SDS011;2674;49.722;10.892;2022-09-14T14:59:02;9.73;;;7.53;;
5303;SDS011;2674;49.722;10.892;2022-09-14T15:01:40;11.33;;;8.53;;
5303;SDS011;2674;49.722;10.892;2022-09-14T15:04:06;9.77;;;8.87;;
5303;SDS011;2674;49.722;10.892;2022-09-14T15:06:32;14.13;;;11.90;;
5303;SDS011;2674;49.722;10.892;2022-09-14T15:08:58;15.30;;;11.23;;
5303;SDS011;2674;49.722;10.892;2022-09-14T15:11:23;13.40;;;11.30;;
5303;SDS011;2674;49.722;10.892;2022-09-14T15:13:49;12.93;;;10.73;;
5303;SDS011;2674;49.722;10.892;2022-09-14T15:16:15;11.47;;;10.10;;
5303;SDS011;2674;49.722;10.892;2022-09-14T15:18:41;11.83;;;9.97;;
5303;SDS011;2674;49.722;10.892;2022-09-14T15:21:07;21.10;;;10.20;;
5303;SDS011;2674;49.722;10.892;2022-09-14T15:23:33;10.53;;;8.43;;
5303;SDS011;2674;49.722;10.892;2022-09-14T15:26:01;12.93;;;8.87;;
5303;SDS011;2674;49.722;10.892;2022-09-14T15:28:27;9.03;;;7.70;;
5303;SDS011;2674;49.722;10.892;2022-09-14T15:30:53;11.47;;;8.10;;
5303;SDS011;2674;49.722;10.892;2022-09-14T15:33:21;9.87;;;8.60;;
5303;SDS011;2674;49.722;10.892;2022-09-14T15:35:52;15.10;;;7.67;;
5303;SDS011;2674;49.722;10.892;2022-09-14T15:38:20;10.33;;;8.70;;
5303;SDS011;2674;49.722;10.892;2022-09-14T15:40:45;11.27;;;8.17;;
5303;SDS011;2674;49.722;10.892;2022-09-14T15:43:11;10.87;;;8.10;;
5303;SDS011;2674;49.722;10.892;2022-09-14T15:45:37;11.10;;;7.07;;
5303;SDS011;2674;49.722;10.892;2022-09-14T15:48:03;5.00;;;4.40;;
5303;SDS011;2674;49.722;10.892;2022-09-14T15:50:29;7.70;;;4.13;;
5303;SDS011;2674;49.722;10.892;2022-09-14T15:52:55;5.13;;;3.40;;
5303;SDS011;2674;49.722;10.892;2022-09-14T15:55:21;2.80;;;2.60;;
5303;SDS011;2674;49.722;10.892;2022-09-14T15:57:47;6.93;;;3.40;;
5303;SDS011;2674;49.722;10.892;2022-09-14T16:00:13;3.50;;;3.07;;
5303;SDS011;2674;49.722;10.892;2022-09-14T16:02:40;2.90;;;2.17;;
5303;SDS011;2674;49.722;10.892;2022-09-14T16:05:06;9.50;;;2.60;;
5303;SDS011;2674;49.722;10.892;2022-09-14T16:07:32;7.00;;;2.80;;
5303;SDS011;2674;49.722;10.892;2022-09-14T16:09:58;5.30;;;2.80;;
5303;SDS011;2674;49.722;10.892;2022-09-14T16:12:23;3.10;;;2.90;;
5303;SDS011;2674;49.722;10.892;2022-09-14T16:14:50;2.97;;;2.70;;
5303;SDS011;2674;49.722;10.892;2022-09-14T16:17:15;5.13;;;3.50;;
5303;SDS011;2674;49.722;10.892;2022-09-14T16:19:41;9.10;;;3.30;;
5303;SDS011;2674;49.722;10.892;2022-09-14T16:22:07;4.20;;;3.30;;
5303;SDS011;2674;49.722;10.892;2022-09-14T16:24:33;4.77;;;3.13;;
5303;SDS011;2674;49.722;10.892;2022-09-14T16:26:59;3.33;;;2.80;;
5303;SDS011;2674;49.722;10.892;2022-09-14T16:29:25;7.60;;;3.90;;
5303;SDS011;2674;49.722;10.892;2022-09-14T16:31:51;6.73;;;3.50;;
5303;SDS011;2674;49.722;10.892;2022-09-14T16:34:19;3.90;;;3.40;;
5303;SDS011;2674;49.722;10.892;2022-09-14T16:36:47;9.33;;;3.97;;
5303;SDS011;2674;49.722;10.892;2022-09-14T16:39:15;6.73;;;4.23;;
5303;SDS011;2674;49.722;10.892;2022-09-14T16:41:43;11.37;;;5.87;;
5303;SDS011;2674;49.722;10.892;2022-09-14T16:44:28;7.30;;;4.20;;
5303;SDS011;2674;49.722;10.892;2022-09-14T16:46:57;5.73;;;4.40;;
5303;SDS011;2674;49.722;10.892;2022-09-14T16:49:23;4.70;;;4.20;;
5303;SDS011;2674;49.722;10.892;2022-09-14T16:51:50;4.60;;;4.20;;
5303;SDS011;2674;49.722;10.892;2022-09-14T16:54:17;5.90;;;2.97;;
5303;SDS011;2674;49.722;10.892;2022-09-14T16:56:45;3.33;;;2.80;;
5303;SDS011;2674;49.722;10.892;2022-09-14T16:59:12;3.83;;;2.97;;
5303;SDS011;2674;49.722;10.892;2022-09-14T17:01:40;2.70;;;2.50;;
5303;SDS011;2674;49.722;10.892;2022-09-14T17:04:09;8.50;;;2.87;;
5303;SDS011;2674;49.722;10.892;2022-09-14T17:06:38;2.97;;;2.60;;
5303;SDS011;2674;49.722;10.892;2022-09-14T17:09:07;3.63;;;2.53;;
5303;SDS011;2674;49.722;10.892;2022-09-14T17:11:36;3.17;;;2.90;;
5303;SDS011;2674;49.722;10.892;2022-09-14T17:14:04;6.50;;;3.43;;
5303;SDS011;2674;49.722;10.892;2022-09-14T17:16:30;3.40;;;2.70;;
5303;SDS011;2674;49.722;10.892;2022-09-14T17:18:58;5.53;;;2.50;;
5303;SDS011;2674;49.722;10.892;2022-09-14T17:21:31;3.07;;;2.60;;
5303;SDS011;2674;49.722;10.892;2022-09-14T17:24:00;3.27;;;2.93;;
5303;SDS011;2674;49.722;10.892;2022-09-14T17:26:28;6.53;;;2.67;;
5303;SDS011;2674;49.722;10.892;2022-09-14T17:28:56;9.63;;;2.50;;
5303;SDS011;2674;49.722;10.892;2022-09-14T17:31:23;5.33;;;2.50;;
5303;SDS011;2674;49.722;10.892;2022-09-14T17:33:53;2.60;;;2.40;;
5303;SDS011;2674;49.722;10.892;2022-09-14T17:36:21;3.47;;;2.10;;
5303;SDS011;2674;49.722;10.892;2022-09-14T17:38:47;3.80;;;2.50;;
5303;SDS011;2674;49.722;10.892;2022-09-14T17:41:18;2.87;;;2.03;;
5303;SDS011;2674;49.722;10.892;2022-09-14T17:43:52;8.10;;;2.10;;
5303;SDS011;2674;49.722;10.892;2022-09-14T17:46:19;2.40;;;2.00;;
5303;SDS011;2674;49.722;10.892;2022-09-14T17:48:48;3.67;;;1.87;;